createdAt,value
2023-01-18T00:01:19.464Z,98638.00
2023-01-18T00:03:46.789Z,98632.00
2023-01-18T00:06:13.923Z,98625.00
2023-01-18T00:08:42.538Z,98619.00
2023-01-18T00:11:15.552Z,98621.00
2023-01-18T00:13:43.467Z,98613.00
2023-01-18T00:16:17.494Z,98608.00
2023-01-18T00:18:50.851Z,98608.00
2023-01-18T00:21:17.654Z,98597.00
2023-01-18T00:23:44.418Z,98598.00
2023-01-18T00:26:12.755Z,98608.00
2023-01-18T00:28:40.631Z,98601.00
2023-01-18T00:31:20.226Z,98601.00
2023-01-18T00:33:49.277Z,98603.00
2023-01-18T00:36:17.270Z,98600.00
2023-01-18T00:38:51.389Z,98611.00
2023-01-18T00:41:19.487Z,98606.00
2023-01-18T00:43:46.523Z,98613.00
2023-01-18T00:46:18.110Z,98618.00
2023-01-18T00:48:45.672Z,98609.00
2023-01-18T00:51:17.000Z,98603.00
2023-01-18T00:53:44.683Z,98609.00
2023-01-18T00:56:16.338Z,98605.00
2023-01-18T00:58:43.642Z,98617.00
2023-01-18T01:01:11.918Z,98617.00
2023-01-18T01:03:58.182Z,98625.00
2023-01-18T01:06:45.869Z,98623.00
2023-01-18T01:09:20.941Z,98632.00
2023-01-18T01:12:08.217Z,98635.00
2023-01-18T01:14:59.175Z,98628.00
2023-01-18T01:17:46.837Z,98637.00
2023-01-18T01:20:32.161Z,98647.00
2023-01-18T01:23:38.029Z,98660.00
2023-01-18T01:26:10.937Z,98670.00
2023-01-18T01:28:44.787Z,98665.00
2023-01-18T01:31:17.019Z,98661.00
2023-01-18T01:33:45.587Z,98685.00
2023-01-18T01:36:17.610Z,98682.00
2023-01-18T01:38:44.816Z,98681.00
2023-01-18T01:41:16.789Z,98696.00
2023-01-18T01:43:50.012Z,98686.00
2023-01-18T01:46:27.935Z,98677.00
2023-01-18T01:49:07.814Z,98693.00
2023-01-18T01:51:39.599Z,98698.00
2023-01-18T01:54:15.108Z,98695.00
2023-01-18T01:56:46.228Z,98687.00
2023-01-18T01:59:15.207Z,98700.00
2023-01-18T02:01:43.927Z,98704.00
2023-01-18T02:04:12.268Z,98693.00
2023-01-18T02:06:40.293Z,98701.00
2023-01-18T02:13:18.247Z,98721.00
2023-01-18T02:15:58.639Z,98706.00
2023-01-18T02:18:44.073Z,98695.00
2023-01-18T02:21:23.585Z,98695.00
2023-01-18T02:24:39.448Z,98699.00
2023-01-18T02:27:35.371Z,98696.00
2023-01-18T02:30:12.789Z,98703.00
2023-01-18T02:32:52.171Z,98690.00
2023-01-18T02:35:50.398Z,98693.00
2023-01-18T02:38:25.149Z,98694.00
2023-01-18T02:41:48.513Z,98706.00
2023-01-18T02:44:42.551Z,98712.00
2023-01-18T02:47:10.298Z,98706.00
2023-01-18T02:49:37.095Z,98696.00
2023-01-18T02:52:06.853Z,98703.00
2023-01-18T02:54:39.791Z,98699.00
2023-01-18T02:57:15.173Z,98701.00
2023-01-18T02:59:54.855Z,98707.00
2023-01-18T03:02:26.312Z,98718.00
2023-01-18T03:04:55.556Z,98700.00
2023-01-18T03:07:53.328Z,98705.00
2023-01-18T03:10:22.909Z,98698.00
2023-01-18T03:13:23.438Z,98708.00
2023-01-18T03:16:04.146Z,98711.00
2023-01-18T03:19:00.517Z,98696.00
2023-01-18T03:21:44.396Z,98713.00
2023-01-18T03:24:13.286Z,98703.00
2023-01-18T03:26:49.121Z,98694.00
2023-01-18T03:29:38.966Z,98698.00
2023-01-18T03:32:35.508Z,98700.00
2023-01-18T03:35:16.766Z,98718.00
2023-01-18T03:37:47.428Z,98726.00
2023-01-18T03:40:20.944Z,98705.00
2023-01-18T03:42:59.585Z,98719.00
2023-01-18T03:46:05.353Z,98733.00
2023-01-18T03:48:33.413Z,98728.00
2023-01-18T03:51:34.531Z,98721.00
2023-01-18T03:54:15.317Z,98709.00
2023-01-18T03:57:00.706Z,98715.00
2023-01-18T03:59:35.114Z,98719.00
2023-01-18T04:02:05.521Z,98727.00
2023-01-18T04:04:32.651Z,98713.00
2023-01-18T04:06:59.696Z,98713.00
2023-01-18T04:09:27.316Z,98715.00
2023-01-18T04:11:54.204Z,98711.00
2023-01-18T04:14:21.129Z,98709.00
2023-01-18T04:16:47.882Z,98708.00
2023-01-18T04:19:14.588Z,98711.00
2023-01-18T04:21:41.507Z,98714.00
2023-01-18T04:24:08.643Z,98705.00
2023-01-18T04:26:35.495Z,98709.00
2023-01-18T04:29:02.804Z,98703.00
2023-01-18T04:31:30.381Z,98723.00
2023-01-18T04:33:57.162Z,98712.00
2023-01-18T04:36:23.940Z,98711.00
2023-01-18T04:38:54.884Z,98714.00
2023-01-18T04:41:22.650Z,98711.00
2023-01-18T04:43:49.651Z,98717.00
2023-01-18T04:46:16.621Z,98716.00
2023-01-18T04:48:43.416Z,98720.00
2023-01-18T04:51:14.591Z,98718.00
2023-01-18T04:53:44.029Z,98719.00
2023-01-18T04:56:11.957Z,98711.00
2023-01-18T04:58:38.796Z,98727.00
2023-01-18T05:01:09.054Z,98716.00
2023-01-18T05:03:38.314Z,98716.00
2023-01-18T05:06:08.321Z,98719.00
2023-01-18T05:08:35.601Z,98723.00
2023-01-18T05:11:07.846Z,98725.00
2023-01-18T05:13:34.634Z,98735.00
2023-01-18T05:16:04.496Z,98744.00
2023-01-18T05:18:33.256Z,98744.00
2023-01-18T05:21:00.281Z,98750.00
2023-01-18T05:23:27.034Z,98743.00
2023-01-18T05:25:59.475Z,98746.00
2023-01-18T05:28:28.479Z,98756.00
2023-01-18T05:30:56.080Z,98743.00
2023-01-18T05:33:23.335Z,98749.00
2023-01-18T05:35:55.469Z,98754.00
2023-01-18T05:38:24.302Z,98759.00
2023-01-18T05:40:54.755Z,98766.00
2023-01-18T05:43:24.215Z,98762.00
2023-01-18T05:45:51.484Z,98764.00
2023-01-18T05:48:20.001Z,98765.00
2023-01-18T05:50:48.787Z,98766.00
2023-01-18T05:53:20.595Z,98769.00
2023-01-18T05:56:00.363Z,98764.00
2023-01-18T05:58:28.777Z,98761.00
2023-01-18T06:00:56.014Z,98765.00
2023-01-18T06:03:25.186Z,98776.00
2023-01-18T06:05:53.053Z,98774.00
2023-01-18T06:08:20.806Z,98784.00
2023-01-18T06:10:55.321Z,98793.00
2023-01-18T06:13:23.568Z,98795.00
2023-01-18T06:15:51.874Z,98802.00
2023-01-18T06:18:18.622Z,98801.00
2023-01-18T06:20:45.331Z,98801.00
2023-01-18T06:23:12.401Z,98803.00
2023-01-18T06:25:39.208Z,98801.00
2023-01-18T06:28:06.430Z,98812.00
2023-01-18T06:30:34.379Z,98812.00
2023-01-18T06:33:06.597Z,98819.00
2023-01-18T06:35:34.512Z,98823.00
2023-01-18T06:38:02.282Z,98822.00
2023-01-18T06:40:29.132Z,98818.00
2023-01-18T06:42:56.419Z,98824.00
2023-01-18T06:45:25.407Z,98826.00
2023-01-18T06:47:53.157Z,98826.00
2023-01-18T06:50:20.277Z,98834.00
2023-01-18T06:52:47.109Z,98834.00
2023-01-18T06:55:15.463Z,98830.00
2023-01-18T06:57:42.441Z,98831.00
2023-01-18T07:00:12.084Z,98841.00
2023-01-18T07:02:39.108Z,98834.00
2023-01-18T07:05:06.694Z,98834.00
2023-01-18T07:07:33.588Z,98835.00
2023-01-18T07:10:00.382Z,98842.00
2023-01-18T07:12:27.153Z,98845.00
2023-01-18T07:14:53.919Z,98838.00
2023-01-18T07:17:20.738Z,98839.00
2023-01-18T07:19:47.455Z,98851.00
2023-01-18T07:22:14.461Z,98858.00
2023-01-18T07:24:41.247Z,98858.00
2023-01-18T07:27:08.051Z,98854.00
2023-01-18T07:29:35.274Z,98863.00
2023-01-18T07:32:02.540Z,98872.00
2023-01-18T07:34:29.368Z,98868.00
2023-01-18T07:36:56.117Z,98869.00
2023-01-18T07:39:22.941Z,98877.00
2023-01-18T07:41:49.666Z,98879.00
2023-01-18T07:44:16.531Z,98863.00
2023-01-18T07:46:43.419Z,98868.00
2023-01-18T07:49:10.216Z,98883.00
2023-01-18T07:51:37.051Z,98875.00
2023-01-18T07:54:03.860Z,98875.00
2023-01-18T07:56:30.712Z,98872.00
2023-01-18T07:58:57.473Z,98878.00
2023-01-18T08:01:24.551Z,98869.00
2023-01-18T08:03:53.545Z,98861.00
2023-01-18T08:06:26.447Z,98869.00
2023-01-18T08:08:55.995Z,98863.00
2023-01-18T08:11:23.044Z,98862.00
2023-01-18T08:13:50.665Z,98863.00
2023-01-18T08:16:18.268Z,98862.00
2023-01-18T08:18:45.808Z,98863.00
2023-01-18T08:21:13.981Z,98868.00
2023-01-18T08:23:41.340Z,98863.00
2023-01-18T08:26:10.490Z,98868.00
2023-01-18T08:28:37.328Z,98862.00
2023-01-18T08:31:19.662Z,98868.00
2023-01-18T08:33:49.069Z,98872.00
2023-01-18T08:36:23.304Z,98868.00
2023-01-18T08:38:53.537Z,98866.00
2023-01-18T08:41:21.088Z,98873.00
2023-01-18T08:43:52.437Z,98884.00
2023-01-18T08:46:19.523Z,98879.00
2023-01-18T08:48:57.638Z,98888.00
2023-01-18T08:51:26.156Z,98883.00
2023-01-18T08:53:57.222Z,98885.00
2023-01-18T08:56:24.935Z,98885.00
2023-01-18T08:58:52.261Z,98897.00
2023-01-18T09:01:19.189Z,98894.00
2023-01-18T09:03:47.946Z,98893.00
2023-01-18T09:06:16.728Z,98896.00
2023-01-18T09:08:43.615Z,98899.00
2023-01-18T09:11:10.809Z,98907.00
2023-01-18T09:13:54.623Z,98896.00
2023-01-18T09:16:26.458Z,98905.00
2023-01-18T09:18:55.359Z,98908.00
2023-01-18T09:21:22.216Z,98900.00
2023-01-18T09:23:50.694Z,98913.00
2023-01-18T09:26:20.594Z,98916.00
2023-01-18T09:28:52.702Z,98907.00
2023-01-18T09:31:22.659Z,98915.00
2023-01-18T09:33:53.721Z,98908.00
2023-01-18T09:36:26.432Z,98917.00
2023-01-18T09:38:54.927Z,98917.00
2023-01-18T09:41:39.656Z,98922.00
2023-01-18T09:44:35.960Z,98929.00
2023-01-18T09:47:27.256Z,98925.00
2023-01-18T09:49:58.919Z,98927.00
2023-01-18T09:52:56.168Z,98931.00
2023-01-18T09:55:27.687Z,98929.00
2023-01-18T09:58:16.799Z,98930.00
2023-01-18T10:00:47.674Z,98937.00
2023-01-18T10:03:32.823Z,98934.00
2023-01-18T10:06:15.440Z,98934.00
2023-01-18T10:09:07.124Z,98928.00
2023-01-18T10:12:00.030Z,98931.00
2023-01-18T10:14:48.479Z,98932.00
2023-01-18T10:17:24.826Z,98933.00
2023-01-18T10:19:51.725Z,98930.00
2023-01-18T10:22:48.018Z,98929.00
2023-01-18T10:25:36.298Z,98930.00
2023-01-18T10:28:50.834Z,98933.00
2023-01-18T10:31:55.708Z,98935.00
2023-01-18T10:34:24.369Z,98936.00
2023-01-18T10:37:43.516Z,98928.00
2023-01-18T10:40:13.514Z,98938.00
2023-01-18T10:42:49.175Z,98936.00
2023-01-18T10:45:29.298Z,98936.00
2023-01-18T10:47:59.707Z,98944.00
2023-01-18T10:50:44.443Z,98940.00
2023-01-18T10:53:37.574Z,98945.00
2023-01-18T10:56:18.366Z,98935.00
2023-01-18T10:58:51.191Z,98940.00
2023-01-18T11:01:25.675Z,98952.00
2023-01-18T11:04:16.683Z,98963.00
2023-01-18T11:07:02.725Z,98946.00
2023-01-18T11:09:49.450Z,98957.00
2023-01-18T11:12:44.314Z,98952.00
2023-01-18T11:15:14.215Z,98958.00
2023-01-18T11:18:00.424Z,98962.00
2023-01-18T11:20:50.020Z,98956.00
2023-01-18T11:23:36.239Z,98963.00
2023-01-18T11:26:09.109Z,98957.00
2023-01-18T11:28:45.051Z,98959.00
2023-01-18T11:31:17.505Z,98965.00
2023-01-18T11:34:02.780Z,98971.00
2023-01-18T11:36:41.404Z,98970.00
2023-01-18T11:39:24.702Z,98976.00
2023-01-18T11:42:10.117Z,98970.00
2023-01-18T11:44:56.209Z,98975.00
2023-01-18T11:47:57.382Z,98974.00
2023-01-18T11:50:54.020Z,98978.00
2023-01-18T11:54:02.821Z,98975.00
2023-01-18T11:56:47.284Z,98981.00
2023-01-18T11:59:34.067Z,98973.00
2023-01-18T12:02:45.431Z,98981.00
2023-01-18T12:05:45.052Z,98977.00
2023-01-18T12:08:46.433Z,98977.00
2023-01-18T12:11:45.415Z,98977.00
2023-01-18T12:14:50.231Z,98989.00
2023-01-18T12:18:01.299Z,98989.00
2023-01-18T12:21:21.532Z,98991.00
2023-01-18T12:24:10.298Z,98992.00
2023-01-18T12:26:59.557Z,99004.00
2023-01-18T12:30:15.847Z,98994.00
2023-01-18T12:33:21.459Z,99008.00
2023-01-18T12:36:37.099Z,99000.00
2023-01-18T12:39:25.422Z,99007.00
2023-01-18T12:42:55.984Z,99004.00
2023-01-18T12:45:45.178Z,99010.00
2023-01-18T12:48:24.691Z,99008.00
2023-01-18T12:50:51.894Z,99017.00
2023-01-18T12:53:55.791Z,99027.00
2023-01-18T12:56:45.288Z,99030.00
2023-01-18T12:59:23.253Z,99035.00
2023-01-18T13:02:00.374Z,99032.00
2023-01-18T13:04:36.186Z,99035.00
2023-01-18T13:07:11.130Z,99037.00
2023-01-18T13:09:44.123Z,99042.00
2023-01-18T13:12:13.426Z,99038.00
2023-01-18T13:15:07.875Z,99041.00
2023-01-18T13:18:05.644Z,99043.00
2023-01-18T13:21:08.093Z,99054.00
2023-01-18T13:23:56.229Z,99060.00
2023-01-18T13:26:30.502Z,99071.00
2023-01-18T13:29:29.129Z,99073.00
2023-01-18T13:31:57.939Z,99075.00
2023-01-18T13:34:47.688Z,99085.00
2023-01-18T13:37:39.910Z,99091.00
2023-01-18T13:40:19.585Z,99083.00
2023-01-18T13:42:46.535Z,99088.00
2023-01-18T13:45:24.781Z,99092.00
2023-01-18T13:48:03.341Z,99103.00
2023-01-18T13:50:39.250Z,99098.00
2023-01-18T13:53:14.818Z,99111.00
2023-01-18T13:55:54.956Z,99115.00
2023-01-18T13:58:31.257Z,99120.00
2023-01-18T14:01:03.456Z,99124.00
2023-01-18T14:03:36.838Z,99131.00
2023-01-18T14:06:14.965Z,99123.00
2023-01-18T14:08:52.556Z,99127.00
2023-01-18T14:11:31.284Z,99127.00
2023-01-18T14:13:57.965Z,99149.00
2023-01-18T14:16:31.692Z,99155.00
2023-01-18T14:19:17.047Z,99152.00
2023-01-18T14:22:15.052Z,99163.00
2023-01-18T14:25:12.957Z,99157.00
2023-01-18T14:27:47.011Z,99170.00
2023-01-18T14:30:25.691Z,99172.00
2023-01-18T14:33:04.807Z,99182.00
2023-01-18T14:35:31.657Z,99180.00
2023-01-18T14:38:18.721Z,99186.00
2023-01-18T14:40:57.132Z,99190.00
2023-01-18T14:43:28.345Z,99196.00
2023-01-18T14:46:15.823Z,99201.00
2023-01-18T14:48:53.798Z,99201.00
2023-01-18T14:51:28.462Z,99205.00
2023-01-18T14:53:58.155Z,99214.00
2023-01-18T14:56:28.457Z,99215.00
2023-01-18T14:59:03.207Z,99210.00
2023-01-18T15:01:40.036Z,99221.00
2023-01-18T15:04:21.485Z,99226.00
2023-01-18T15:07:01.049Z,99217.00
2023-01-18T15:09:31.899Z,99222.00
2023-01-18T15:12:04.551Z,99219.00
2023-01-18T15:14:36.549Z,99223.00
2023-01-18T15:17:10.048Z,99232.00
2023-01-18T15:19:44.146Z,99238.00
2023-01-18T15:22:13.034Z,99236.00
2023-01-18T15:24:44.068Z,99250.00
2023-01-18T15:27:18.095Z,99241.00
2023-01-18T15:29:51.193Z,99253.00
2023-01-18T15:32:22.582Z,99267.00
2023-01-18T15:34:52.303Z,99265.00
2023-01-18T15:37:33.108Z,99274.00
2023-01-18T15:40:21.850Z,99276.00
2023-01-18T15:43:04.775Z,99281.00
2023-01-18T15:45:39.289Z,99286.00
2023-01-18T15:48:14.475Z,99289.00
2023-01-18T15:50:47.462Z,99291.00
2023-01-18T15:53:35.740Z,99304.00
2023-01-18T15:56:17.115Z,99295.00
2023-01-18T15:58:55.590Z,99307.00
2023-01-18T16:01:29.225Z,99309.00
2023-01-18T16:04:00.713Z,99307.00
2023-01-18T16:06:29.645Z,99315.00
2023-01-18T16:09:19.652Z,99329.00
2023-01-18T16:11:56.780Z,99327.00
2023-01-18T16:14:24.335Z,99323.00
2023-01-18T16:16:53.446Z,99320.00
2023-01-18T16:19:22.485Z,99332.00
2023-01-18T16:22:28.023Z,99338.00
2023-01-18T16:25:08.492Z,99342.00
2023-01-18T16:27:52.569Z,99345.00
2023-01-18T16:30:33.936Z,99346.00
2023-01-18T16:33:15.778Z,99354.00
2023-01-18T16:35:42.828Z,99353.00
2023-01-18T16:38:20.078Z,99359.00
2023-01-18T16:40:50.245Z,99357.00
2023-01-18T16:43:24.083Z,99363.00
2023-01-18T16:45:54.403Z,99368.00
2023-01-18T16:48:27.321Z,99374.00
2023-01-18T16:50:56.067Z,99387.00
2023-01-18T16:53:23.106Z,99384.00
2023-01-18T16:55:49.904Z,99383.00
2023-01-18T16:58:21.473Z,99396.00
2023-01-18T17:01:00.658Z,99391.00
2023-01-18T17:03:27.814Z,99389.00
2023-01-18T17:05:55.432Z,99403.00
2023-01-18T17:08:22.437Z,99396.00
2023-01-18T17:10:51.987Z,99400.00
2023-01-18T17:13:18.901Z,99411.00
2023-01-18T17:15:45.852Z,99409.00
2023-01-18T17:18:26.970Z,99421.00
2023-01-18T17:20:55.167Z,99423.00
2023-01-18T17:23:22.977Z,99424.00
2023-01-18T17:25:49.993Z,99436.00
2023-01-18T17:28:19.305Z,99435.00
2023-01-18T17:30:49.333Z,99429.00
2023-01-18T17:33:22.114Z,99437.00
2023-01-18T17:35:50.872Z,99431.00
2023-01-18T17:38:24.368Z,99443.00
2023-01-18T17:40:52.009Z,99438.00
2023-01-18T17:43:32.016Z,99451.00
2023-01-18T17:46:02.389Z,99446.00
2023-01-18T17:48:29.743Z,99458.00
2023-01-18T17:50:56.621Z,99459.00
2023-01-18T17:53:23.367Z,99457.00
2023-01-18T17:55:50.364Z,99459.00
2023-01-18T17:58:17.123Z,99465.00
2023-01-18T18:00:44.687Z,99467.00
2023-01-18T18:03:11.529Z,99465.00
2023-01-18T18:05:38.355Z,99483.00
2023-01-18T18:08:05.424Z,99475.00
2023-01-18T18:10:32.253Z,99489.00
2023-01-18T18:12:59.698Z,99489.00
2023-01-18T18:15:27.302Z,99494.00
2023-01-18T18:17:54.031Z,99492.00
2023-01-18T18:20:22.808Z,99498.00
2023-01-18T18:22:49.978Z,99497.00
2023-01-18T18:25:16.765Z,99497.00
2023-01-18T18:27:46.425Z,99495.00
2023-01-18T18:30:15.595Z,99500.00
2023-01-18T18:32:42.552Z,99502.00
2023-01-18T18:35:23.774Z,99499.00
2023-01-18T18:37:53.533Z,99498.00
2023-01-18T18:40:20.350Z,99514.00
2023-01-18T18:43:00.677Z,99514.00
2023-01-18T18:45:33.873Z,99516.00
2023-01-18T18:48:01.324Z,99527.00
2023-01-18T18:50:29.258Z,99526.00
2023-01-18T18:52:56.523Z,99522.00
2023-01-18T18:55:23.791Z,99536.00
2023-01-18T18:57:50.694Z,99541.00
2023-01-18T19:00:18.115Z,99543.00
2023-01-18T19:02:46.314Z,99547.00
2023-01-18T19:05:13.082Z,99552.00
2023-01-18T19:07:40.580Z,99546.00
2023-01-18T19:10:07.865Z,99550.00
2023-01-18T19:12:34.736Z,99562.00
2023-01-18T19:15:01.663Z,99554.00
2023-01-18T19:17:31.337Z,99564.00
2023-01-18T19:19:59.051Z,99552.00
2023-01-18T19:22:26.485Z,99567.00
2023-01-18T19:24:53.277Z,99566.00
2023-01-18T19:27:21.295Z,99574.00
2023-01-18T19:29:48.666Z,99563.00
2023-01-18T19:32:15.956Z,99570.00
2023-01-18T19:34:42.708Z,99581.00
2023-01-18T19:37:09.464Z,99577.00
2023-01-18T19:39:36.420Z,99575.00
2023-01-18T19:42:03.319Z,99575.00
2023-01-18T19:44:30.559Z,99587.00
2023-01-18T19:47:00.578Z,99584.00
2023-01-18T19:49:27.359Z,99589.00
2023-01-18T19:51:54.858Z,99592.00
2023-01-18T19:54:22.398Z,99587.00
2023-01-18T19:56:49.549Z,99594.00
2023-01-18T19:59:16.502Z,99599.00
2023-01-18T20:01:43.649Z,99587.00
2023-01-18T20:04:12.859Z,99601.00
2023-01-18T20:06:39.910Z,99600.00
2023-01-18T20:09:17.665Z,99593.00
2023-01-18T20:11:45.366Z,99606.00
2023-01-18T20:14:13.083Z,99610.00
2023-01-18T20:16:40.206Z,99615.00
2023-01-18T20:19:07.087Z,99612.00
2023-01-18T20:21:33.896Z,99609.00
2023-01-18T20:24:01.010Z,99614.00
2023-01-18T20:26:36.465Z,99617.00
2023-01-18T20:29:08.568Z,99610.00
2023-01-18T20:31:38.486Z,99619.00
2023-01-18T20:34:06.620Z,99611.00
2023-01-18T20:36:37.419Z,99607.00
2023-01-18T20:39:06.198Z,99610.00
2023-01-18T20:41:32.940Z,99620.00
2023-01-18T20:43:59.895Z,99617.00
2023-01-18T20:46:26.689Z,99632.00
2023-01-18T20:48:53.658Z,99626.00
2023-01-18T20:51:20.842Z,99622.00
2023-01-18T20:53:47.581Z,99629.00
2023-01-18T20:56:28.377Z,99626.00
2023-01-18T20:58:56.209Z,99625.00
2023-01-18T21:01:23.376Z,99628.00
2023-01-18T21:03:55.470Z,99640.00
2023-01-18T21:06:22.737Z,99651.00
2023-01-18T21:08:53.314Z,99653.00
2023-01-18T21:11:23.104Z,99649.00
2023-01-18T21:13:50.324Z,99653.00
2023-01-18T21:16:17.842Z,99661.00
2023-01-18T21:18:44.911Z,99657.00
2023-01-18T21:21:12.727Z,99656.00
2023-01-18T21:23:39.788Z,99660.00
2023-01-18T21:26:12.063Z,99670.00
2023-01-18T21:28:39.438Z,99665.00
2023-01-18T21:31:06.925Z,99682.00
2023-01-18T21:33:35.431Z,99690.00
2023-01-18T21:36:08.686Z,99689.00
2023-01-18T21:38:35.979Z,99679.00
2023-01-18T21:41:21.756Z,99685.00
2023-01-18T21:44:14.928Z,99692.00
2023-01-18T21:46:46.478Z,99680.00
2023-01-18T21:49:47.449Z,99686.00
2023-01-18T21:52:39.212Z,99689.00
2023-01-18T21:55:06.126Z,99691.00
2023-01-18T21:57:32.907Z,99700.00
2023-01-18T21:59:59.717Z,99698.00
2023-01-18T22:02:26.661Z,99697.00
2023-01-18T22:05:19.812Z,99695.00
2023-01-18T22:07:46.622Z,99704.00
2023-01-18T22:10:13.528Z,99698.00
2023-01-18T22:12:40.283Z,99708.00
2023-01-18T22:15:07.574Z,99703.00
2023-01-18T22:17:34.381Z,99701.00
2023-01-18T22:20:01.851Z,99707.00
2023-01-18T22:22:28.931Z,99727.00
2023-01-18T22:24:56.993Z,99725.00
2023-01-18T22:27:23.727Z,99735.00
2023-01-18T22:29:50.675Z,99730.00
2023-01-18T22:32:17.416Z,99736.00
2023-01-18T22:34:44.104Z,99727.00
2023-01-18T22:37:11.550Z,99747.00
2023-01-18T22:39:38.251Z,99737.00
2023-01-18T22:42:05.298Z,99747.00
2023-01-18T22:44:32.875Z,99747.00
2023-01-18T22:46:59.755Z,99757.00
2023-01-18T22:49:27.618Z,99759.00
2023-01-18T22:51:54.444Z,99761.00
2023-01-18T22:54:22.857Z,99742.00
2023-01-18T22:56:49.715Z,99757.00
2023-01-18T22:59:16.558Z,99760.00
2023-01-18T23:01:43.471Z,99768.00
2023-01-18T23:04:10.383Z,99767.00
2023-01-18T23:06:46.579Z,99768.00
2023-01-18T23:09:16.223Z,99770.00
2023-01-18T23:11:44.787Z,99762.00
2023-01-18T23:14:30.195Z,99769.00
2023-01-18T23:17:15.445Z,99752.00
2023-01-18T23:19:42.220Z,99756.00
2023-01-18T23:22:09.126Z,99747.00
2023-01-18T23:24:37.508Z,99752.00
2023-01-18T23:27:07.879Z,99749.00
2023-01-18T23:29:34.691Z,99749.00
2023-01-18T23:32:01.756Z,99755.00
2023-01-18T23:34:28.591Z,99755.00
2023-01-18T23:36:55.598Z,99764.00
2023-01-18T23:39:41.300Z,99755.00
2023-01-18T23:42:27.167Z,99758.00
2023-01-18T23:45:12.488Z,99760.00
2023-01-18T23:47:57.781Z,99766.00
2023-01-18T23:50:43.342Z,99771.00
2023-01-18T23:53:32.285Z,99775.00
2023-01-18T23:56:00.109Z,99768.00
2023-01-18T23:58:27.564Z,99772.00
